Terminal Aerodrome Forecast
Issued by NWS Portland, ME

Home | Current Version | Previous Version | Text Only | Print | Product List | Glossary On
Versions: 1 2 3 4 5 6 7 8 9 10 11 12 13 14 15 16 17
000
FTUS41 KGYX 172320
TAFPWM
TAF
KPWM 172320Z 1800/1824 35007KT P6SM BKN250
     FM181400 VRB03KT P6SM -SN OVC050
     FM181600 VRB03KT 3SM -SN OVC015
     FM181900 VRB03KT 1SM -SN OVC004
     FM182200 VRB03KT 5SM -SN BR OVC008=

USA.gov is the U.S. government's official web portal to all federal, state and local government web resources and services.